Oregon Mtn Atmospheric Data: 06/27/2019 Summary  Detailed Graphs  Station List

  Temperature     Wind Precipitation Visibility
Timestamp Air Wet
Bulb
Dew-
point
24-hr
Max
24-hr
Min
Relative
Humidity
Atmospheric
Pressure
Avg
Speed
Avg
Dir
Spot
Speed
Spot
Dir
Max
Speed
Max
Dir
  Rate Situation Start End 1 hr 3 hr 6 hr 12 hr 24 hr   Situation
Date Time °F °F °F °F °F % in Hg mph ° mph ° mph ° Y/N in/hr text Date Time Date Time in in in in in mi text
06/27/2019 12:03 AM 51.26 46.22 41.00 68.72 46.40 67.0 Not Reported 10.29 W 10.96 SW 13.42 W No 0.000 No Precipitation 06/02/2019 04:47 AM 06/02/2019 04:52 AM 0.000 0.000 0.000 0.000 0.000 1.24 Not Reported
06/27/2019 12:18 AM 51.08 46.04 41.00 68.72 46.40 68.0 Not Reported 12.08 W 12.30 W 16.11 W No 0.000 No Precipitation 06/02/2019 04:47 AM 06/02/2019 04:52 AM 0.000 0.000 0.000 0.000 0.000 1.24 Not Reported
06/27/2019 12:34 AM 50.90 45.86 40.82 68.72 46.40 68.0 Not Reported 11.86 W 12.75 W 16.78 W No 0.000 No Precipitation 06/02/2019 04:47 AM 06/02/2019 04:52 AM 0.000 0.000 0.000 0.000 0.000 1.24 Not Reported
06/27/2019 12:48 AM 50.90 45.86 40.64 68.72 46.40 68.0 Not Reported 17.22 W 18.12 W 16.55 W No 0.000 No Precipitation 06/02/2019 04:47 AM 06/02/2019 04:52 AM 0.000 0.000 0.000 0.000 0.000 1.24 Not Reported
06/27/2019 01:03 AM 50.36 45.50 40.46 68.72 46.40 68.0 Not Reported 14.32 W 14.76 W 18.12 W No 0.000 No Precipitation 06/02/2019 04:47 AM 06/02/2019 04:52 AM 0.000 0.000 0.000 0.000 0.000 1.24 Not Reported
06/27/2019 01:18 AM 50.36 45.32 40.46 68.72 46.40 68.0 Not Reported 12.75 W 15.66 W 17.90 W No 0.000 No Precipitation 06/02/2019 04:47 AM 06/02/2019 04:52 AM 0.000 0.000 0.000 0.000 0.000 1.24 Not Reported
06/27/2019 01:33 AM 50.18 45.14 39.92 68.72 46.40 68.0 Not Reported 13.20 W 14.76 W 19.24 W No 0.000 No Precipitation 06/02/2019 04:47 AM 06/02/2019 04:52 AM 0.000 0.000 0.000 0.000 0.000 1.24 Not Reported
06/27/2019 01:48 AM 49.82 44.96 40.10 68.72 46.40 69.0 Not Reported 12.53 W 10.07 W 17.00 W No 0.000 No Precipitation 06/02/2019 04:47 AM 06/02/2019 04:52 AM 0.000 0.000 0.000 0.000 0.000 1.24 Not Reported
06/27/2019 02:03 AM 49.64 44.78 39.56 68.72 46.40 68.0 Not Reported 12.75 W 12.08 W 15.66 W No 0.000 No Precipitation 06/02/2019 04:47 AM 06/02/2019 04:52 AM 0.000 0.000 0.000 0.000 0.000 1.24 Not Reported
06/27/2019 02:18 AM 49.64 44.60 39.56 68.72 46.40 68.0 Not Reported 13.87 W 10.74 W 16.33 W No 0.000 No Precipitation 06/02/2019 04:47 AM 06/02/2019 04:52 AM 0.000 0.000 0.000 0.000 0.000 1.24 Not Reported
06/27/2019 02:33 AM 49.46 44.42 39.38 68.72 46.40 67.0 Not Reported 13.20 W 15.43 W 16.78 W No 0.000 No Precipitation 06/02/2019 04:47 AM 06/02/2019 04:52 AM 0.000 0.000 0.000 0.000 0.000 1.24 Not Reported
06/27/2019 02:48 AM 49.10 44.42 39.56 68.72 46.40 69.0 Not Reported 11.18 W 7.38 W 17.67 W No 0.000 No Precipitation 06/02/2019 04:47 AM 06/02/2019 04:52 AM 0.000 0.000 0.000 0.000 0.000 1.24 Not Reported
06/27/2019 03:03 AM 49.10 44.42 39.56 68.72 46.40 69.0 Not Reported 14.09 W 11.63 W 15.43 W No 0.000 No Precipitation 06/02/2019 04:47 AM 06/02/2019 04:52 AM 0.000 0.000 0.000 0.000 0.000 1.24 Not Reported
06/27/2019 03:18 AM 48.92 44.24 39.56 68.72 46.40 68.0 Not Reported 12.53 W 15.21 W 17.45 W No 0.000 No Precipitation 06/02/2019 04:47 AM 06/02/2019 04:52 AM 0.000 0.000 0.000 0.000 0.000 1.24 Not Reported
06/27/2019 03:33 AM 48.56 44.24 39.74 68.72 46.40 71.0 Not Reported 13.65 W 10.74 W 15.21 W No 0.000 No Precipitation 06/02/2019 04:47 AM 06/02/2019 04:52 AM 0.000 0.000 0.000 0.000 0.000 1.24 Not Reported
06/27/2019 03:48 AM 48.20 44.06 39.92 68.72 46.40 72.0 Not Reported 9.62 W 12.30 W 16.11 NW No 0.000 No Precipitation 06/02/2019 04:47 AM 06/02/2019 04:52 AM 0.000 0.000 0.000 0.000 0.000 1.24 Not Reported
06/27/2019 04:03 AM 48.02 44.24 39.92 68.72 46.40 73.0 Not Reported 8.50 W 12.53 W 13.65 W No 0.000 No Precipitation 06/02/2019 04:47 AM 06/02/2019 04:52 AM 0.000 0.000 0.000 0.000 0.000 1.24 Not Reported
06/27/2019 04:18 AM 47.66 43.88 39.74 68.72 46.40 74.0 Not Reported 7.16 W 8.28 W 17.67 W No 0.000 No Precipitation 06/02/2019 04:47 AM 06/02/2019 04:52 AM 0.000 0.000 0.000 0.000 0.000 1.24 Not Reported
06/27/2019 04:33 AM 47.30 43.70 39.74 68.72 46.40 75.0 Not Reported 5.82 SW 8.50 W 13.87 W No 0.000 No Precipitation 06/02/2019 04:47 AM 06/02/2019 04:52 AM 0.000 0.000 0.000 0.000 0.000 1.24 Not Reported
06/27/2019 04:48 AM 47.66 43.88 39.56 68.72 46.40 73.0 Not Reported 10.51 NW 7.16 W 13.87 W No 0.000 No Precipitation 06/02/2019 04:47 AM 06/02/2019 04:52 AM 0.000 0.000 0.000 0.000 0.000 1.24 Not Reported
06/27/2019 05:03 AM 46.76 43.34 39.56 68.72 46.40 76.0 Not Reported 7.61 W 7.61 W 12.75 W No 0.000 No Precipitation 06/02/2019 04:47 AM 06/02/2019 04:52 AM 0.000 0.000 0.000 0.000 0.000 1.24 Not Reported
06/27/2019 05:18 AM 46.04 43.16 39.74 68.72 46.04 78.0 Not Reported 8.05 W 5.14 SW 11.63 W No 0.000 No Precipitation 06/02/2019 04:47 AM 06/02/2019 04:52 AM 0.000 0.000 0.000 0.000 0.000 1.24 Not Reported
06/27/2019 05:33 AM 46.94 43.52 39.74 68.72 46.04 76.0 Not Reported 9.84 W 7.16 W 11.86 W No 0.000 No Precipitation 06/02/2019 04:47 AM 06/02/2019 04:52 AM 0.000 0.000 0.000 0.000 0.000 1.24 Not Reported
06/27/2019 05:48 AM 46.58 43.34 39.74 68.72 46.04 77.0 Not Reported 7.61 W 8.72 W 12.30 W No 0.000 No Precipitation 06/02/2019 04:47 AM 06/02/2019 04:52 AM 0.000 0.000 0.000 0.000 0.000 1.24 Not Reported
06/27/2019 06:03 AM 45.50 42.80 39.74 68.72 45.14 80.0 Not Reported 5.59 SW 3.36 SW 9.17 SW No 0.000 No Precipitation 06/02/2019 04:47 AM 06/02/2019 04:52 AM 0.000 0.000 0.000 0.000 0.000 1.24 Not Reported
06/27/2019 06:18 AM 44.78 42.44 39.74 68.72 44.78 82.0 Not Reported 4.03 SW 4.03 SW 7.16 S No 0.000 No Precipitation 06/02/2019 04:47 AM 06/02/2019 04:52 AM 0.000 0.000 0.000 0.000 0.000 1.24 Not Reported
06/27/2019 06:35 AM 43.88 41.90 39.92 68.72 43.70 85.0 Not Reported 4.03 W 1.34 W 5.59 SW No 0.000 No Precipitation 06/02/2019 04:47 AM 06/02/2019 04:52 AM 0.000 0.000 0.000 0.000 0.000 1.24 Not Reported
06/27/2019 06:48 AM 44.24 42.08 39.92 68.72 43.70 84.0 Not Reported 3.58 NW 4.03 W 5.59 W No 0.000 No Precipitation 06/02/2019 04:47 AM 06/02/2019 04:52 AM 0.000 0.000 0.000 0.000 0.000 1.24 Not Reported
06/27/2019 07:03 AM 44.06 41.90 39.92 68.72 43.70 85.0 Not Reported 4.03 W 4.47 W 5.14 NW No 0.000 No Precipitation 06/02/2019 04:47 AM 06/02/2019 04:52 AM 0.000 0.000 0.000 0.000 0.000 1.24 Not Reported
06/27/2019 07:19 AM 43.70 41.72 39.92 68.72 43.52 86.0 Not Reported 4.70 W 1.34 S 5.14 W No 0.000 No Precipitation 06/02/2019 04:47 AM 06/02/2019 04:52 AM 0.000 0.000 0.000 0.000 0.000 1.24 Not Reported
06/27/2019 07:33 AM 43.16 41.54 39.92 68.72 43.16 88.0 Not Reported 0.89 W 2.24 W 2.68 W No 0.000 No Precipitation 06/02/2019 04:47 AM 06/02/2019 04:52 AM 0.000 0.000 0.000 0.000 0.000 1.24 Not Reported
06/27/2019 07:49 AM 43.16 41.54 39.74 68.72 43.16 87.0 Not Reported 3.36 W 2.24 W 2.68 NW No 0.000 No Precipitation 06/02/2019 04:47 AM 06/02/2019 04:52 AM 0.000 0.000 0.000 0.000 0.000 1.24 Not Reported
06/27/2019 08:03 AM 42.98 41.72 40.28 68.72 42.80 89.0 Not Reported 1.34 W 1.57 W 2.24 W No 0.000 No Precipitation 06/02/2019 04:47 AM 06/02/2019 04:52 AM 0.000 0.000 0.000 0.000 0.000 1.24 Not Reported
06/27/2019 08:18 AM 43.34 41.90 40.28 68.72 42.80 88.0 Not Reported 0.45 W 0.89 W 1.79 W No 0.000 No Precipitation 06/02/2019 04:47 AM 06/02/2019 04:52 AM 0.000 0.000 0.000 0.000 0.000 1.24 Not Reported
06/27/2019 08:33 AM 46.58 43.88 40.82 68.72 42.80 79.0 Not Reported 1.12 SW 1.34 W 2.01 W No 0.000 No Precipitation 06/02/2019 04:47 AM 06/02/2019 04:52 AM 0.000 0.000 0.000 0.000 0.000 1.24 Not Reported
06/27/2019 08:48 AM 49.82 45.14 40.82 68.72 42.80 69.0 Not Reported 0.89 W 2.01 W 1.57 SW No 0.000 No Precipitation 06/02/2019 04:47 AM 06/02/2019 04:52 AM 0.000 0.000 0.000 0.000 0.000 1.24 Not Reported
06/27/2019 09:04 AM 50.36 45.50 40.28 68.72 42.80 67.0 Not Reported 1.79 SW 2.46 W 3.58 W No 0.000 No Precipitation 06/02/2019 04:47 AM 06/02/2019 04:52 AM 0.000 0.000 0.000 0.000 0.000 1.24 Not Reported
06/27/2019 09:18 AM 50.90 45.32 40.28 68.72 42.80 67.0 Not Reported 2.46 W 3.36 SW 3.13 W No 0.000 No Precipitation 06/02/2019 04:47 AM 06/02/2019 04:52 AM 0.000 0.000 0.000 0.000 0.000 1.24 Not Reported
06/27/2019 09:33 AM 52.16 46.22 40.10 68.72 42.80 63.0 Not Reported 2.91 W 3.36 SW 3.80 SW No 0.000 No Precipitation 06/02/2019 04:47 AM 06/02/2019 04:52 AM 0.000 0.000 0.000 0.000 0.000 1.24 Not Reported
06/27/2019 09:48 AM 53.06 46.40 39.56 68.72 42.80 60.0 Not Reported 2.91 W 4.25 SW 4.70 SW No 0.000 No Precipitation 06/02/2019 04:47 AM 06/02/2019 04:52 AM 0.000 0.000 0.000 0.000 0.000 1.24 Not Reported
06/27/2019 10:03 AM 52.70 46.76 39.56 68.72 42.80 60.0 Not Reported 4.47 SW 2.46 W 5.82 SW No 0.000 No Precipitation 06/02/2019 04:47 AM 06/02/2019 04:52 AM 0.000 0.000 0.000 0.000 0.000 1.24 Not Reported
06/27/2019 10:18 AM 54.68 46.76 38.66 68.72 42.80 54.0 Not Reported 3.13 W 2.91 W 5.59 W No 0.000 No Precipitation 06/02/2019 04:47 AM 06/02/2019 04:52 AM 0.000 0.000 0.000 0.000 0.000 1.24 Not Reported
06/27/2019 10:33 AM 54.86 47.48 38.66 68.72 42.80 55.0 Not Reported 3.13 SW 6.04 SW 4.70 W No 0.000 No Precipitation 06/02/2019 04:47 AM 06/02/2019 04:52 AM 0.000 0.000 0.000 0.000 0.000 1.24 Not Reported
06/27/2019 10:48 AM 55.94 46.76 36.50 68.72 42.80 48.0 Not Reported 6.49 SW 4.47 SW 6.26 W No 0.000 No Precipitation 06/02/2019 04:47 AM 06/02/2019 04:52 AM 0.000 0.000 0.000 0.000 0.000 1.24 Not Reported
06/27/2019 11:04 AM 55.76 47.30 37.94 68.72 42.80 50.0 Not Reported 4.70 SW 4.92 SW 7.38 W No 0.000 No Precipitation 06/02/2019 04:47 AM 06/02/2019 04:52 AM 0.000 0.000 0.000 0.000 0.000 1.24 Not Reported
06/27/2019 11:18 AM 56.84 47.30 37.22 68.72 42.80 47.0 Not Reported 5.14 SW 5.82 SW 8.28 SW No 0.000 No Precipitation 06/02/2019 04:47 AM 06/02/2019 04:52 AM 0.000 0.000 0.000 0.000 0.000 1.24 Not Reported
06/27/2019 11:34 AM 57.38 47.12 36.50 68.72 42.80 45.0 Not Reported 5.82 SW 3.58 SW 8.72 SW No 0.000 No Precipitation 06/02/2019 04:47 AM 06/02/2019 04:52 AM 0.000 0.000 0.000 0.000 0.000 1.24 Not Reported
06/27/2019 11:49 AM 59.00 47.12 33.98 68.72 42.80 39.0 Not Reported 5.14 SW 5.37 SW 8.72 SW No 0.000 No Precipitation 06/02/2019 04:47 AM 06/02/2019 04:52 AM 0.000 0.000 0.000 0.000 0.000 1.24 Not Reported
06/27/2019 12:03 PM 60.26 46.58 32.36 68.72 42.80 32.0 Not Reported 6.71 W 7.83 SW 8.28 SW No 0.000 No Precipitation 06/02/2019 04:47 AM 06/02/2019 04:52 AM 0.000 0.000 0.000 0.000 0.000 1.24 Not Reported
06/27/2019 12:18 PM 61.16 48.02 34.34 68.72 42.80 35.0 Not Reported 6.71 SW 7.38 W 9.84 SW No 0.000 No Precipitation 06/02/2019 04:47 AM 06/02/2019 04:52 AM 0.000 0.000 0.000 0.000 0.000 1.24 Not Reported
06/27/2019 12:34 PM 60.98 48.56 33.98 68.72 42.80 39.0 Not Reported 5.59 SW 4.92 SW 8.05 SW No 0.000 No Precipitation 06/02/2019 04:47 AM 06/02/2019 04:52 AM 0.000 0.000 0.000 0.000 0.000 1.24 Not Reported
06/27/2019 12:49 PM 62.60 49.10 34.52 68.72 42.80 35.0 Not Reported 5.82 SW 6.26 W 8.05 SW No 0.000 No Precipitation 06/02/2019 04:47 AM 06/02/2019 04:52 AM 0.000 0.000 0.000 0.000 0.000 1.24 Not Reported
06/27/2019 01:04 PM 63.14 48.92 34.88 68.72 42.80 34.0 Not Reported 6.04 W 5.37 SW 6.71 W No 0.000 No Precipitation 06/02/2019 04:47 AM 06/02/2019 04:52 AM 0.000 0.000 0.000 0.000 0.000 1.24 Not Reported
06/27/2019 01:18 PM 62.60 48.74 35.24 68.72 42.80 35.0 Not Reported 6.04 SW 4.70 SW 7.83 W No 0.000 No Precipitation 06/02/2019 04:47 AM 06/02/2019 04:52 AM 0.000 0.000 0.000 0.000 0.000 1.24 Not Reported
06/27/2019 01:33 PM 64.22 49.10 33.62 68.72 42.80 32.0 Not Reported 6.93 W 8.72 W 9.40 W No 0.000 No Precipitation 06/02/2019 04:47 AM 06/02/2019 04:52 AM 0.000 0.000 0.000 0.000 0.000 1.24 Not Reported
06/27/2019 01:48 PM 64.94 50.54 35.06 68.72 42.80 33.0 Not Reported 5.37 SW 6.49 SW 9.17 W No 0.000 No Precipitation 06/02/2019 04:47 AM 06/02/2019 04:52 AM 0.000 0.000 0.000 0.000 0.000 1.24 Not Reported
06/27/2019 02:03 PM 63.32 49.28 34.16 68.72 42.80 33.0 Not Reported 6.04 NW 1.12 N 9.40 SW No 0.000 No Precipitation 06/02/2019 04:47 AM 06/02/2019 04:52 AM 0.000 0.000 0.000 0.000 0.000 1.24 Not Reported
06/27/2019 02:19 PM 64.58 49.82 35.24 68.72 42.80 34.0 Not Reported 7.83 SW 7.38 SW 9.84 W No 0.000 No Precipitation 06/02/2019 04:47 AM 06/02/2019 04:52 AM 0.000 0.000 0.000 0.000 0.000 1.24 Not Reported
06/27/2019 02:33 PM 66.02 51.08 36.32 68.72 42.80 33.0 Not Reported 6.26 W 6.04 SW 7.61 W No 0.000 No Precipitation 06/02/2019 04:47 AM 06/02/2019 04:52 AM 0.000 0.000 0.000 0.000 0.000 1.24 Not Reported
06/27/2019 02:49 PM 66.56 50.90 35.60 68.72 42.80 31.0 Not Reported 6.93 W 9.84 W 9.17 SW No 0.000 No Precipitation 06/02/2019 04:47 AM 06/02/2019 04:52 AM 0.000 0.000 0.000 0.000 0.000 1.24 Not Reported
06/27/2019 03:03 PM 66.92 51.26 35.06 68.72 42.80 30.0 Not Reported 8.05 SW 7.83 SW 9.40 SW No 0.000 No Precipitation 06/02/2019 04:47 AM 06/02/2019 04:52 AM 0.000 0.000 0.000 0.000 0.000 1.24 Not Reported
06/27/2019 03:20 PM 67.10 51.44 36.14 67.82 42.80 29.0 Not Reported 5.59 SW 8.72 W 12.30 W No 0.000 No Precipitation 06/02/2019 04:47 AM 06/02/2019 04:52 AM 0.000 0.000 0.000 0.000 0.000 1.24 Not Reported
06/27/2019 03:33 PM 67.82 51.44 34.88 67.82 42.80 29.0 Not Reported 8.95 W 6.93 SW 11.18 W No 0.000 No Precipitation 06/02/2019 04:47 AM 06/02/2019 04:52 AM 0.000 0.000 0.000 0.000 0.000 1.24 Not Reported
06/27/2019 03:48 PM 68.00 51.26 33.98 69.08 42.80 28.0 Not Reported 8.95 W 6.93 W 14.54 W No 0.000 No Precipitation 06/02/2019 04:47 AM 06/02/2019 04:52 AM 0.000 0.000 0.000 0.000 0.000 1.24 Not Reported
06/27/2019 04:03 PM 67.10 51.26 34.16 69.08 42.80 29.0 Not Reported 9.17 W 8.72 SW 13.20 W No 0.000 No Precipitation 06/02/2019 04:47 AM 06/02/2019 04:52 AM 0.000 0.000 0.000 0.000 0.000 1.24 Not Reported
06/27/2019 04:18 PM 68.54 51.80 34.34 69.08 42.80 28.0 Not Reported 7.83 W 9.84 W 10.74 W No 0.000 No Precipitation 06/02/2019 04:47 AM 06/02/2019 04:52 AM 0.000 0.000 0.000 0.000 0.000 1.24 Not Reported
06/27/2019 04:33 PM 67.82 51.80 35.06 69.08 42.80 29.0 Not Reported 8.72 W 11.18 W 13.42 W No 0.000 No Precipitation 06/02/2019 04:47 AM 06/02/2019 04:52 AM 0.000 0.000 0.000 0.000 0.000 1.24 Not Reported
06/27/2019 04:48 PM 68.54 52.34 36.50 69.44 42.80 30.0 Not Reported 7.38 SW 9.40 SW 13.20 W No 0.000 No Precipitation 06/02/2019 04:47 AM 06/02/2019 04:52 AM 0.000 0.000 0.000 0.000 0.000 1.24 Not Reported
06/27/2019 05:03 PM 70.70 52.16 35.42 70.70 42.80 27.0 Not Reported 8.72 W 8.72 SW 13.65 W No 0.000 No Precipitation 06/02/2019 04:47 AM 06/02/2019 04:52 AM 0.000 0.000 0.000 0.000 0.000 1.24 Not Reported
06/27/2019 05:18 PM 68.90 51.80 34.34 70.70 42.80 27.0 Not Reported 9.84 SW 13.20 W 14.99 W No 0.000 No Precipitation 06/02/2019 04:47 AM 06/02/2019 04:52 AM 0.000 0.000 0.000 0.000 0.000 1.24 Not Reported
06/27/2019 05:34 PM 68.00 51.98 35.96 70.70 42.80 30.0 Not Reported 6.04 SW 5.37 SW 14.76 W No 0.000 No Precipitation 06/02/2019 04:47 AM 06/02/2019 04:52 AM 0.000 0.000 0.000 0.000 0.000 1.24 Not Reported
06/27/2019 05:48 PM 69.08 52.16 35.24 70.70 42.80 27.0 Not Reported 12.30 NW 12.30 W 16.11 W No 0.000 No Precipitation 06/02/2019 04:47 AM 06/02/2019 04:52 AM 0.000 0.000 0.000 0.000 0.000 1.24 Not Reported
06/27/2019 06:04 PM 68.18 51.62 34.70 70.70 42.80 29.0 Not Reported 11.86 W 10.96 W 14.76 W No 0.000 No Precipitation 06/02/2019 04:47 AM 06/02/2019 04:52 AM 0.000 0.000 0.000 0.000 0.000 1.24 Not Reported
06/27/2019 06:19 PM 68.18 51.44 34.16 70.70 42.80 27.0 Not Reported 10.96 W 13.42 W 14.32 W No 0.000 No Precipitation 06/02/2019 04:47 AM 06/02/2019 04:52 AM 0.000 0.000 0.000 0.000 0.000 1.24 Not Reported
06/27/2019 06:33 PM 67.46 51.62 34.52 70.70 42.80 29.0 Not Reported 9.62 NW 6.04 W 11.86 W No 0.000 No Precipitation 06/02/2019 04:47 AM 06/02/2019 04:52 AM 0.000 0.000 0.000 0.000 0.000 1.24 Not Reported
06/27/2019 06:49 PM 68.72 51.62 34.88 70.70 42.80 28.0 Not Reported 8.72 W 10.51 W 15.21 W No 0.000 No Precipitation 06/02/2019 04:47 AM 06/02/2019 04:52 AM 0.000 0.000 0.000 0.000 0.000 1.24 Not Reported
06/27/2019 07:03 PM 68.90 51.80 35.42 70.70 42.80 28.0 Not Reported 7.83 W 7.16 W 12.53 W No 0.000 No Precipitation 06/02/2019 04:47 AM 06/02/2019 04:52 AM 0.000 0.000 0.000 0.000 0.000 1.24 Not Reported
06/27/2019 07:19 PM 67.82 51.44 35.06 70.70 42.80 30.0 Not Reported 8.72 W 11.41 W 12.08 W No 0.000 No Precipitation 06/02/2019 04:47 AM 06/02/2019 04:52 AM 0.000 0.000 0.000 0.000 0.000 1.24 Not Reported
06/27/2019 07:33 PM 66.56 51.08 35.42 70.70 42.80 30.0 Not Reported 10.29 W 11.86 W 13.65 W No 0.000 No Precipitation 06/02/2019 04:47 AM 06/02/2019 04:52 AM 0.000 0.000 0.000 0.000 0.000 1.24 Not Reported
06/27/2019 07:48 PM 67.28 51.08 35.42 70.70 42.80 30.0 Not Reported 8.05 W 6.26 W 13.87 NW No 0.000 No Precipitation 06/02/2019 04:47 AM 06/02/2019 04:52 AM 0.000 0.000 0.000 0.000 0.000 1.24 Not Reported
06/27/2019 08:03 PM 67.10 51.80 36.50 70.70 42.80 31.0 Not Reported 10.29 W 11.18 W 11.86 W No 0.000 No Precipitation 06/02/2019 04:47 AM 06/02/2019 04:52 AM 0.000 0.000 0.000 0.000 0.000 1.24 Not Reported
06/27/2019 08:19 PM 67.64 51.80 36.68 70.70 42.80 32.0 Not Reported 11.18 W 10.51 NW 11.86 W No 0.000 No Precipitation 06/02/2019 04:47 AM 06/02/2019 04:52 AM 0.000 0.000 0.000 0.000 0.000 1.24 Not Reported
06/27/2019 08:35 PM 66.74 51.98 37.40 x 42.80 33.0 Not Reported 7.83 W 9.84 W 13.42 W No 0.000 No Precipitation 06/02/2019 04:47 AM 06/02/2019 04:52 AM 0.000 0.000 0.000 0.000 0.000 1.24 Not Reported
06/27/2019 08:48 PM 65.66 51.44 37.58 70.70 42.80 35.0 Not Reported 8.05 W 12.53 W 10.74 NW No 0.000 No Precipitation 06/02/2019 04:47 AM 06/02/2019 04:52 AM 0.000 0.000 0.000 0.000 0.000 1.24 Not Reported
06/27/2019 09:03 PM 64.58 51.26 38.12 70.70 42.80 37.0 Not Reported 10.96 W 9.40 W 12.30 NW No 0.000 No Precipitation 06/02/2019 04:47 AM 06/02/2019 04:52 AM 0.000 0.000 0.000 0.000 0.000 1.24 Not Reported
06/27/2019 09:18 PM 62.42 50.36 38.66 70.70 42.80 41.0 Not Reported 10.51 W 10.96 W 14.54 W No 0.000 No Precipitation 06/02/2019 04:47 AM 06/02/2019 04:52 AM 0.000 0.000 0.000 0.000 0.000 1.24 Not Reported
06/27/2019 09:33 PM 61.52 50.36 39.56 70.70 42.80 44.0 Not Reported 6.71 W 8.05 SW 13.65 W No 0.000 No Precipitation 06/02/2019 04:47 AM 06/02/2019 04:52 AM 0.000 0.000 0.000 0.000 0.000 1.24 Not Reported
06/27/2019 09:48 PM 60.62 50.36 40.28 70.70 42.80 46.0 Not Reported 5.14 SW 6.26 SW 13.87 W No 0.000 No Precipitation 06/02/2019 04:47 AM 06/02/2019 04:52 AM 0.000 0.000 0.000 0.000 0.000 1.24 Not Reported
06/27/2019 10:03 PM 60.08 50.00 40.28 70.70 42.80 48.0 Not Reported 6.26 SW 6.26 W 10.07 SW No 0.000 No Precipitation 06/02/2019 04:47 AM 06/02/2019 04:52 AM 0.000 0.000 0.000 0.000 0.000 1.24 Not Reported
06/27/2019 10:20 PM 59.54 49.82 40.64 70.70 42.80 49.0 Not Reported x W 7.38 NW 8.50 W No 0.000 No Precipitation 06/02/2019 04:47 AM 06/02/2019 04:52 AM 0.000 0.000 0.000 0.000 0.000 1.24 Not Reported
06/27/2019 10:33 PM 58.82 49.64 41.00 70.70 42.80 51.0 Not Reported 5.14 SW 4.25 W 8.95 W No 0.000 No Precipitation 06/02/2019 04:47 AM 06/02/2019 04:52 AM 0.000 0.000 0.000 0.000 0.000 1.24 Not Reported
06/27/2019 10:49 PM 58.82 49.64 41.18 70.70 42.80 51.0 Not Reported 4.03 W 5.59 W 8.28 W No 0.000 No Precipitation 06/02/2019 04:47 AM 06/02/2019 04:52 AM 0.000 0.000 0.000 0.000 0.000 1.24 Not Reported
06/27/2019 11:04 PM 57.74 49.28 41.54 70.70 42.80 54.0 Not Reported 5.37 SW 4.92 SW 8.05 SW No 0.000 No Precipitation 06/02/2019 04:47 AM 06/02/2019 04:52 AM 0.000 0.000 0.000 0.000 0.000 1.24 Not Reported
06/27/2019 11:18 PM 57.74 49.46 41.72 70.70 42.80 55.0 Not Reported 5.82 SW 6.93 SW 9.84 W No 0.000 No Precipitation 06/02/2019 04:47 AM 06/02/2019 04:52 AM 0.000 0.000 0.000 0.000 0.000 1.24 Not Reported
06/27/2019 11:33 PM 57.56 49.46 41.72 70.70 42.80 55.0 Not Reported 8.95 SW 6.26 SW 9.17 SW No 0.000 No Precipitation 06/02/2019 04:47 AM 06/02/2019 04:52 AM 0.000 0.000 0.000 0.000 0.000 1.24 Not Reported
06/27/2019 11:48 PM 57.02 49.28 41.72 70.70 42.80 56.0 Not Reported 5.59 SW 5.14 W 10.51 SW No 0.000 No Precipitation 06/02/2019 04:47 AM 06/02/2019 04:52 AM 0.000 0.000 0.000 0.000 0.000 1.24 Not Reported